sensor_id;sensor_type;location;lat;lon;timestamp;P1;durP1;ratioP1;P2;durP2;ratioP2
40669;SDS011;26355;45.528;9.234;2022-08-01T00:01:22;9.07;;;3.35;;
40669;SDS011;26355;45.528;9.234;2022-08-01T00:03:48;11.85;;;3.00;;
40669;SDS011;26355;45.528;9.234;2022-08-01T00:06:13;11.60;;;2.92;;
40669;SDS011;26355;45.528;9.234;2022-08-01T00:08:39;6.80;;;2.42;;
40669;SDS011;26355;45.528;9.234;2022-08-01T00:11:05;9.00;;;2.83;;
40669;SDS011;26355;45.528;9.234;2022-08-01T00:13:30;7.40;;;2.80;;
40669;SDS011;26355;45.528;9.234;2022-08-01T00:15:56;7.50;;;2.55;;
40669;SDS011;26355;45.528;9.234;2022-08-01T00:18:22;5.68;;;2.42;;
40669;SDS011;26355;45.528;9.234;2022-08-01T00:20:48;8.18;;;2.60;;
40669;SDS011;26355;45.528;9.234;2022-08-01T00:23:13;9.65;;;2.90;;
40669;SDS011;26355;45.528;9.234;2022-08-01T00:25:39;8.10;;;2.50;;
40669;SDS011;26355;45.528;9.234;2022-08-01T00:28:04;10.73;;;3.05;;
40669;SDS011;26355;45.528;9.234;2022-08-01T00:30:33;11.55;;;3.30;;
40669;SDS011;26355;45.528;9.234;2022-08-01T00:32:59;9.73;;;2.60;;
40669;SDS011;26355;45.528;9.234;2022-08-01T00:35:25;9.43;;;2.78;;
40669;SDS011;26355;45.528;9.234;2022-08-01T00:37:51;9.65;;;2.88;;
40669;SDS011;26355;45.528;9.234;2022-08-01T00:40:17;9.63;;;3.20;;
40669;SDS011;26355;45.528;9.234;2022-08-01T00:42:43;9.50;;;3.08;;
40669;SDS011;26355;45.528;9.234;2022-08-01T00:45:09;6.70;;;2.50;;
40669;SDS011;26355;45.528;9.234;2022-08-01T00:47:35;6.90;;;2.78;;
40669;SDS011;26355;45.528;9.234;2022-08-01T00:50:02;7.68;;;2.75;;
40669;SDS011;26355;45.528;9.234;2022-08-01T00:52:29;10.98;;;2.90;;
40669;SDS011;26355;45.528;9.234;2022-08-01T00:54:55;9.05;;;2.80;;
40669;SDS011;26355;45.528;9.234;2022-08-01T00:57:21;7.28;;;2.60;;
40669;SDS011;26355;45.528;9.234;2022-08-01T00:59:46;9.48;;;2.92;;
40669;SDS011;26355;45.528;9.234;2022-08-01T01:02:12;9.15;;;2.78;;
40669;SDS011;26355;45.528;9.234;2022-08-01T01:04:38;10.07;;;2.70;;
40669;SDS011;26355;45.528;9.234;2022-08-01T01:14:59;10.07;;;2.90;;
40669;SDS011;26355;45.528;9.234;2022-08-01T01:20:21;9.98;;;3.17;;
40669;SDS011;26355;45.528;9.234;2022-08-01T01:31:24;8.23;;;2.63;;
40669;SDS011;26355;45.528;9.234;2022-08-01T01:33:51;8.70;;;2.70;;
40669;SDS011;26355;45.528;9.234;2022-08-01T01:36:19;6.97;;;2.60;;
40669;SDS011;26355;45.528;9.234;2022-08-01T01:41:12;12.50;;;2.95;;
40669;SDS011;26355;45.528;9.234;2022-08-01T01:43:41;9.85;;;2.97;;
40669;SDS011;26355;45.528;9.234;2022-08-01T01:46:09;8.63;;;2.75;;
40669;SDS011;26355;45.528;9.234;2022-08-01T01:51:02;9.52;;;2.80;;
40669;SDS011;26355;45.528;9.234;2022-08-01T01:55:57;8.38;;;2.67;;
40669;SDS011;26355;45.528;9.234;2022-08-01T02:03:16;8.35;;;2.85;;
40669;SDS011;26355;45.528;9.234;2022-08-01T02:05:43;8.02;;;2.67;;
40669;SDS011;26355;45.528;9.234;2022-08-01T02:08:09;8.57;;;2.55;;
40669;SDS011;26355;45.528;9.234;2022-08-01T02:13:03;8.57;;;2.80;;
40669;SDS011;26355;45.528;9.234;2022-08-01T02:15:31;8.70;;;2.72;;
40669;SDS011;26355;45.528;9.234;2022-08-01T02:17:59;9.27;;;2.67;;
40669;SDS011;26355;45.528;9.234;2022-08-01T02:22:58;7.43;;;2.55;;
40669;SDS011;26355;45.528;9.234;2022-08-01T02:28:13;10.07;;;3.15;;
40669;SDS011;26355;45.528;9.234;2022-08-01T02:30:53;8.05;;;2.78;;
40669;SDS011;26355;45.528;9.234;2022-08-01T02:33:24;8.43;;;2.80;;
40669;SDS011;26355;45.528;9.234;2022-08-01T02:35:59;7.68;;;2.65;;
40669;SDS011;26355;45.528;9.234;2022-08-01T02:38:28;10.02;;;2.70;;
40669;SDS011;26355;45.528;9.234;2022-08-01T02:40:58;7.75;;;2.60;;
40669;SDS011;26355;45.528;9.234;2022-08-01T02:43:27;6.90;;;2.60;;
40669;SDS011;26355;45.528;9.234;2022-08-01T02:45:57;7.03;;;2.45;;
40669;SDS011;26355;45.528;9.234;2022-08-01T02:48:26;7.75;;;2.70;;
40669;SDS011;26355;45.528;9.234;2022-08-01T02:50:54;11.35;;;3.20;;
40669;SDS011;26355;45.528;9.234;2022-08-01T02:53:23;10.27;;;3.20;;
40669;SDS011;26355;45.528;9.234;2022-08-01T02:55:50;8.43;;;2.47;;
40669;SDS011;26355;45.528;9.234;2022-08-01T02:58:18;8.65;;;2.65;;
40669;SDS011;26355;45.528;9.234;2022-08-01T03:00:45;8.85;;;2.70;;
40669;SDS011;26355;45.528;9.234;2022-08-01T03:03:13;7.30;;;2.60;;
40669;SDS011;26355;45.528;9.234;2022-08-01T03:05:41;11.02;;;2.95;;
40669;SDS011;26355;45.528;9.234;2022-08-01T03:08:08;9.98;;;2.75;;
40669;SDS011;26355;45.528;9.234;2022-08-01T03:10:36;10.15;;;2.90;;
40669;SDS011;26355;45.528;9.234;2022-08-01T03:13:04;8.13;;;2.50;;
40669;SDS011;26355;45.528;9.234;2022-08-01T03:15:31;10.00;;;3.08;;
40669;SDS011;26355;45.528;9.234;2022-08-01T03:17:59;8.38;;;2.88;;
40669;SDS011;26355;45.528;9.234;2022-08-01T03:20:26;8.73;;;2.80;;
40669;SDS011;26355;45.528;9.234;2022-08-01T03:22:54;8.18;;;2.60;;
40669;SDS011;26355;45.528;9.234;2022-08-01T03:25:23;9.10;;;2.72;;
40669;SDS011;26355;45.528;9.234;2022-08-01T03:27:52;9.27;;;2.97;;
40669;SDS011;26355;45.528;9.234;2022-08-01T03:30:22;9.65;;;2.70;;
40669;SDS011;26355;45.528;9.234;2022-08-01T03:32:48;8.20;;;2.80;;
40669;SDS011;26355;45.528;9.234;2022-08-01T03:35:14;10.75;;;2.60;;
40669;SDS011;26355;45.528;9.234;2022-08-01T03:37:41;8.00;;;2.78;;
40669;SDS011;26355;45.528;9.234;2022-08-01T03:40:23;10.20;;;2.90;;
40669;SDS011;26355;45.528;9.234;2022-08-01T03:42:58;10.45;;;3.38;;
40669;SDS011;26355;45.528;9.234;2022-08-01T03:45:31;10.88;;;2.83;;
40669;SDS011;26355;45.528;9.234;2022-08-01T03:48:02;7.90;;;2.88;;
40669;SDS011;26355;45.528;9.234;2022-08-01T03:50:33;9.68;;;2.92;;
40669;SDS011;26355;45.528;9.234;2022-08-01T03:53:02;15.57;;;3.10;;
40669;SDS011;26355;45.528;9.234;2022-08-01T03:55:29;8.23;;;2.72;;
40669;SDS011;26355;45.528;9.234;2022-08-01T03:57:56;10.20;;;3.08;;
40669;SDS011;26355;45.528;9.234;2022-08-01T04:00:23;12.35;;;2.80;;
40669;SDS011;26355;45.528;9.234;2022-08-01T04:02:50;12.05;;;3.10;;
40669;SDS011;26355;45.528;9.234;2022-08-01T04:05:16;10.73;;;3.53;;
40669;SDS011;26355;45.528;9.234;2022-08-01T04:07:46;9.80;;;3.17;;
40669;SDS011;26355;45.528;9.234;2022-08-01T04:10:13;9.65;;;3.00;;
40669;SDS011;26355;45.528;9.234;2022-08-01T04:12:38;9.10;;;3.00;;
40669;SDS011;26355;45.528;9.234;2022-08-01T04:15:05;10.82;;;3.65;;
40669;SDS011;26355;45.528;9.234;2022-08-01T04:17:31;10.10;;;3.53;;
40669;SDS011;26355;45.528;9.234;2022-08-01T04:19:56;8.80;;;3.08;;
40669;SDS011;26355;45.528;9.234;2022-08-01T04:22:22;10.38;;;3.00;;
40669;SDS011;26355;45.528;9.234;2022-08-01T04:24:49;8.45;;;2.92;;
40669;SDS011;26355;45.528;9.234;2022-08-01T04:27:23;10.63;;;3.08;;
40669;SDS011;26355;45.528;9.234;2022-08-01T04:29:53;13.10;;;3.15;;
40669;SDS011;26355;45.528;9.234;2022-08-01T04:32:22;10.85;;;3.22;;
40669;SDS011;26355;45.528;9.234;2022-08-01T04:34:49;7.78;;;2.70;;
40669;SDS011;26355;45.528;9.234;2022-08-01T04:37:16;9.93;;;3.00;;
40669;SDS011;26355;45.528;9.234;2022-08-01T04:39:42;10.00;;;3.30;;
40669;SDS011;26355;45.528;9.234;2022-08-01T04:42:10;11.05;;;3.33;;
40669;SDS011;26355;45.528;9.234;2022-08-01T04:44:38;11.27;;;3.60;;
40669;SDS011;26355;45.528;9.234;2022-08-01T04:47:04;7.18;;;2.80;;
40669;SDS011;26355;45.528;9.234;2022-08-01T04:49:32;10.27;;;3.10;;
40669;SDS011;26355;45.528;9.234;2022-08-01T04:51:59;9.57;;;3.05;;
40669;SDS011;26355;45.528;9.234;2022-08-01T04:54:32;9.98;;;3.00;;
40669;SDS011;26355;45.528;9.234;2022-08-01T04:57:02;10.77;;;2.72;;
40669;SDS011;26355;45.528;9.234;2022-08-01T04:59:28;12.10;;;3.33;;
40669;SDS011;26355;45.528;9.234;2022-08-01T05:04:36;11.35;;;3.10;;
40669;SDS011;26355;45.528;9.234;2022-08-01T05:07:03;9.40;;;2.50;;
40669;SDS011;26355;45.528;9.234;2022-08-01T05:09:29;8.88;;;2.53;;
40669;SDS011;26355;45.528;9.234;2022-08-01T05:11:55;12.90;;;2.90;;
40669;SDS011;26355;45.528;9.234;2022-08-01T05:14:23;8.07;;;2.70;;
40669;SDS011;26355;45.528;9.234;2022-08-01T05:16:52;8.35;;;2.60;;
40669;SDS011;26355;45.528;9.234;2022-08-01T05:19:18;10.75;;;2.95;;
40669;SDS011;26355;45.528;9.234;2022-08-01T05:21:44;8.23;;;2.63;;
40669;SDS011;26355;45.528;9.234;2022-08-01T05:24:09;9.40;;;2.80;;
40669;SDS011;26355;45.528;9.234;2022-08-01T05:26:35;9.63;;;3.25;;
40669;SDS011;26355;45.528;9.234;2022-08-01T05:29:01;10.55;;;2.92;;
40669;SDS011;26355;45.528;9.234;2022-08-01T05:31:27;7.55;;;2.58;;
40669;SDS011;26355;45.528;9.234;2022-08-01T05:33:53;7.55;;;3.00;;
40669;SDS011;26355;45.528;9.234;2022-08-01T05:36:18;9.60;;;2.70;;
40669;SDS011;26355;45.528;9.234;2022-08-01T05:38:44;10.63;;;3.05;;
40669;SDS011;26355;45.528;9.234;2022-08-01T05:41:10;8.60;;;2.67;;
40669;SDS011;26355;45.528;9.234;2022-08-01T05:43:36;7.35;;;2.58;;
40669;SDS011;26355;45.528;9.234;2022-08-01T05:46:01;10.20;;;2.85;;
40669;SDS011;26355;45.528;9.234;2022-08-01T05:48:27;10.45;;;2.65;;
40669;SDS011;26355;45.528;9.234;2022-08-01T05:50:53;8.82;;;2.60;;
40669;SDS011;26355;45.528;9.234;2022-08-01T05:53:19;13.57;;;3.17;;
40669;SDS011;26355;45.528;9.234;2022-08-01T05:55:44;12.95;;;3.45;;
40669;SDS011;26355;45.528;9.234;2022-08-01T05:58:10;13.93;;;4.05;;
40669;SDS011;26355;45.528;9.234;2022-08-01T06:00:36;12.63;;;3.10;;
40669;SDS011;26355;45.528;9.234;2022-08-01T06:03:02;12.95;;;2.72;;
40669;SDS011;26355;45.528;9.234;2022-08-01T06:05:27;19.63;;;2.65;;
40669;SDS011;26355;45.528;9.234;2022-08-01T06:07:53;16.13;;;3.13;;
40669;SDS011;26355;45.528;9.234;2022-08-01T06:10:19;14.88;;;2.97;;
40669;SDS011;26355;45.528;9.234;2022-08-01T06:12:44;13.50;;;2.90;;
40669;SDS011;26355;45.528;9.234;2022-08-01T06:15:10;17.88;;;2.72;;
40669;SDS011;26355;45.528;9.234;2022-08-01T06:17:36;13.55;;;3.00;;
40669;SDS011;26355;45.528;9.234;2022-08-01T06:20:02;10.32;;;2.95;;
40669;SDS011;26355;45.528;9.234;2022-08-01T06:22:28;16.48;;;3.10;;
40669;SDS011;26355;45.528;9.234;2022-08-01T06:24:54;15.98;;;3.33;;
40669;SDS011;26355;45.528;9.234;2022-08-01T06:27:20;14.32;;;2.80;;
40669;SDS011;26355;45.528;9.234;2022-08-01T06:29:46;17.50;;;2.70;;
40669;SDS011;26355;45.528;9.234;2022-08-01T06:32:13;13.35;;;2.70;;
40669;SDS011;26355;45.528;9.234;2022-08-01T06:37:04;10.67;;;3.20;;
40669;SDS011;26355;45.528;9.234;2022-08-01T06:39:30;12.52;;;3.53;;
40669;SDS011;26355;45.528;9.234;2022-08-01T06:41:55;12.45;;;3.38;;
40669;SDS011;26355;45.528;9.234;2022-08-01T06:44:21;11.05;;;3.22;;
40669;SDS011;26355;45.528;9.234;2022-08-01T06:46:46;14.45;;;4.10;;
40669;SDS011;26355;45.528;9.234;2022-08-01T06:49:12;13.82;;;3.47;;
40669;SDS011;26355;45.528;9.234;2022-08-01T06:51:37;13.55;;;3.20;;
40669;SDS011;26355;45.528;9.234;2022-08-01T06:54:03;11.55;;;2.78;;
40669;SDS011;26355;45.528;9.234;2022-08-01T06:56:29;9.35;;;2.30;;
40669;SDS011;26355;45.528;9.234;2022-08-01T06:58:55;7.18;;;2.50;;
40669;SDS011;26355;45.528;9.234;2022-08-01T07:01:25;13.23;;;3.13;;
40669;SDS011;26355;45.528;9.234;2022-08-01T07:03:54;12.00;;;2.65;;
40669;SDS011;26355;45.528;9.234;2022-08-01T07:06:20;10.57;;;3.05;;
40669;SDS011;26355;45.528;9.234;2022-08-01T07:08:47;7.60;;;2.92;;
40669;SDS011;26355;45.528;9.234;2022-08-01T07:11:12;7.57;;;2.58;;
40669;SDS011;26355;45.528;9.234;2022-08-01T07:13:38;9.82;;;2.50;;
40669;SDS011;26355;45.528;9.234;2022-08-01T07:16:03;8.88;;;3.00;;
40669;SDS011;26355;45.528;9.234;2022-08-01T07:18:29;10.55;;;2.90;;
40669;SDS011;26355;45.528;9.234;2022-08-01T07:20:54;8.48;;;3.13;;
40669;SDS011;26355;45.528;9.234;2022-08-01T07:23:20;12.75;;;3.20;;
40669;SDS011;26355;45.528;9.234;2022-08-01T07:25:46;9.02;;;2.85;;
40669;SDS011;26355;45.528;9.234;2022-08-01T07:28:13;9.88;;;3.00;;
40669;SDS011;26355;45.528;9.234;2022-08-01T07:30:40;7.80;;;2.77;;
40669;SDS011;26355;45.528;9.234;2022-08-01T07:33:07;9.70;;;3.47;;
40669;SDS011;26355;45.528;9.234;2022-08-01T07:35:33;10.93;;;3.00;;
40669;SDS011;26355;45.528;9.234;2022-08-01T07:37:59;15.98;;;4.03;;
40669;SDS011;26355;45.528;9.234;2022-08-01T07:40:24;13.73;;;3.55;;
40669;SDS011;26355;45.528;9.234;2022-08-01T07:42:50;10.27;;;2.92;;
40669;SDS011;26355;45.528;9.234;2022-08-01T07:45:16;9.05;;;2.85;;
40669;SDS011;26355;45.528;9.234;2022-08-01T07:47:41;9.13;;;2.95;;
40669;SDS011;26355;45.528;9.234;2022-08-01T07:50:07;9.57;;;2.65;;
40669;SDS011;26355;45.528;9.234;2022-08-01T07:52:33;10.00;;;3.13;;
40669;SDS011;26355;45.528;9.234;2022-08-01T07:54:59;11.68;;;2.88;;
40669;SDS011;26355;45.528;9.234;2022-08-01T07:57:25;9.93;;;2.83;;
40669;SDS011;26355;45.528;9.234;2022-08-01T07:59:51;7.95;;;2.67;;
40669;SDS011;26355;45.528;9.234;2022-08-01T08:02:16;6.75;;;2.67;;
40669;SDS011;26355;45.528;9.234;2022-08-01T08:04:42;9.27;;;2.83;;
40669;SDS011;26355;45.528;9.234;2022-08-01T08:07:08;7.15;;;2.90;;
40669;SDS011;26355;45.528;9.234;2022-08-01T08:09:34;8.15;;;2.97;;
40669;SDS011;26355;45.528;9.234;2022-08-01T08:11:59;9.35;;;2.70;;
40669;SDS011;26355;45.528;9.234;2022-08-01T08:14:25;10.90;;;2.97;;
40669;SDS011;26355;45.528;9.234;2022-08-01T08:16:51;7.63;;;2.85;;
40669;SDS011;26355;45.528;9.234;2022-08-01T08:19:16;9.18;;;2.60;;
40669;SDS011;26355;45.528;9.234;2022-08-01T08:21:43;12.13;;;3.00;;
40669;SDS011;26355;45.528;9.234;2022-08-01T08:24:09;10.20;;;3.03;;
40669;SDS011;26355;45.528;9.234;2022-08-01T08:26:44;9.32;;;3.10;;
40669;SDS011;26355;45.528;9.234;2022-08-01T08:31:37;11.83;;;3.00;;
40669;SDS011;26355;45.528;9.234;2022-08-01T08:34:02;11.20;;;2.83;;
40669;SDS011;26355;45.528;9.234;2022-08-01T08:36:28;11.15;;;3.10;;
40669;SDS011;26355;45.528;9.234;2022-08-01T08:38:54;15.55;;;3.80;;
40669;SDS011;26355;45.528;9.234;2022-08-01T08:41:20;11.48;;;3.15;;
40669;SDS011;26355;45.528;9.234;2022-08-01T08:43:47;11.27;;;3.03;;
40669;SDS011;26355;45.528;9.234;2022-08-01T08:46:13;10.68;;;2.92;;
40669;SDS011;26355;45.528;9.234;2022-08-01T08:48:40;12.20;;;3.75;;
40669;SDS011;26355;45.528;9.234;2022-08-01T08:51:07;11.15;;;3.28;;
40669;SDS011;26355;45.528;9.234;2022-08-01T08:53:36;11.13;;;3.40;;
40669;SDS011;26355;45.528;9.234;2022-08-01T08:56:06;12.38;;;2.88;;
40669;SDS011;26355;45.528;9.234;2022-08-01T08:58:33;12.15;;;3.15;;
40669;SDS011;26355;45.528;9.234;2022-08-01T09:01:04;11.10;;;2.70;;
40669;SDS011;26355;45.528;9.234;2022-08-01T09:03:32;8.15;;;2.75;;
40669;SDS011;26355;45.528;9.234;2022-08-01T09:05:58;10.43;;;2.73;;
40669;SDS011;26355;45.528;9.234;2022-08-01T09:08:23;9.05;;;2.83;;
40669;SDS011;26355;45.528;9.234;2022-08-01T09:10:49;9.98;;;3.00;;
40669;SDS011;26355;45.528;9.234;2022-08-01T09:13:15;11.38;;;2.85;;
40669;SDS011;26355;45.528;9.234;2022-08-01T09:15:41;9.85;;;3.22;;
40669;SDS011;26355;45.528;9.234;2022-08-01T09:18:25;11.38;;;3.20;;
40669;SDS011;26355;45.528;9.234;2022-08-01T09:23:43;8.05;;;3.03;;
40669;SDS011;26355;45.528;9.234;2022-08-01T09:26:14;13.23;;;3.28;;
40669;SDS011;26355;45.528;9.234;2022-08-01T09:28:41;9.77;;;3.10;;
40669;SDS011;26355;45.528;9.234;2022-08-01T09:31:09;14.13;;;3.50;;
40669;SDS011;26355;45.528;9.234;2022-08-01T09:33:46;11.88;;;3.10;;
40669;SDS011;26355;45.528;9.234;2022-08-01T09:36:15;9.77;;;2.58;;
40669;SDS011;26355;45.528;9.234;2022-08-01T09:38:41;11.27;;;3.13;;
40669;SDS011;26355;45.528;9.234;2022-08-01T09:41:06;9.80;;;3.00;;
40669;SDS011;26355;45.528;9.234;2022-08-01T09:43:32;12.45;;;3.10;;
40669;SDS011;26355;45.528;9.234;2022-08-01T09:45:59;9.85;;;3.10;;
40669;SDS011;26355;45.528;9.234;2022-08-01T09:48:29;10.13;;;2.90;;
40669;SDS011;26355;45.528;9.234;2022-08-01T09:50:58;10.95;;;3.10;;
40669;SDS011;26355;45.528;9.234;2022-08-01T09:55:49;8.53;;;2.57;;
40669;SDS011;26355;45.528;9.234;2022-08-01T09:58:17;11.30;;;3.17;;
40669;SDS011;26355;45.528;9.234;2022-08-01T10:00:44;10.07;;;3.10;;
40669;SDS011;26355;45.528;9.234;2022-08-01T10:03:28;8.93;;;2.80;;
40669;SDS011;26355;45.528;9.234;2022-08-01T10:05:54;8.52;;;2.40;;
40669;SDS011;26355;45.528;9.234;2022-08-01T10:08:22;9.45;;;3.13;;
40669;SDS011;26355;45.528;9.234;2022-08-01T10:11:09;9.27;;;2.60;;
40669;SDS011;26355;45.528;9.234;2022-08-01T10:13:38;10.23;;;2.53;;
40669;SDS011;26355;45.528;9.234;2022-08-01T10:16:05;10.52;;;3.20;;
40669;SDS011;26355;45.528;9.234;2022-08-01T10:18:34;8.63;;;2.70;;
40669;SDS011;26355;45.528;9.234;2022-08-01T10:21:01;9.82;;;3.03;;
40669;SDS011;26355;45.528;9.234;2022-08-01T10:23:30;9.45;;;2.60;;
40669;SDS011;26355;45.528;9.234;2022-08-01T10:26:00;8.20;;;2.65;;
40669;SDS011;26355;45.528;9.234;2022-08-01T10:28:26;10.00;;;2.90;;
40669;SDS011;26355;45.528;9.234;2022-08-01T10:30:56;7.43;;;2.67;;
40669;SDS011;26355;45.528;9.234;2022-08-01T10:33:23;12.63;;;2.90;;
40669;SDS011;26355;45.528;9.234;2022-08-01T10:35:50;10.60;;;2.72;;
40669;SDS011;26355;45.528;9.234;2022-08-01T10:40:42;6.97;;;2.43;;
40669;SDS011;26355;45.528;9.234;2022-08-01T10:43:09;11.40;;;2.65;;
40669;SDS011;26355;45.528;9.234;2022-08-01T10:50:42;9.73;;;2.85;;
40669;SDS011;26355;45.528;9.234;2022-08-01T10:55:48;10.18;;;3.03;;
40669;SDS011;26355;45.528;9.234;2022-08-01T10:58:27;9.88;;;2.85;;
40669;SDS011;26355;45.528;9.234;2022-08-01T11:04:28;12.90;;;3.30;;
40669;SDS011;26355;45.528;9.234;2022-08-01T11:09:00;13.20;;;3.50;;
40669;SDS011;26355;45.528;9.234;2022-08-01T11:11:29;10.82;;;2.90;;
40669;SDS011;26355;45.528;9.234;2022-08-01T11:14:04;11.33;;;3.00;;
40669;SDS011;26355;45.528;9.234;2022-08-01T11:16:38;11.98;;;2.80;;
40669;SDS011;26355;45.528;9.234;2022-08-01T11:19:06;7.45;;;2.70;;
40669;SDS011;26355;45.528;9.234;2022-08-01T11:27:17;9.73;;;2.75;;
40669;SDS011;26355;45.528;9.234;2022-08-01T11:35:14;11.15;;;3.22;;
40669;SDS011;26355;45.528;9.234;2022-08-01T11:37:40;12.43;;;3.30;;
40669;SDS011;26355;45.528;9.234;2022-08-01T11:40:26;11.23;;;3.05;;
40669;SDS011;26355;45.528;9.234;2022-08-01T11:45:49;12.05;;;3.45;;
40669;SDS011;26355;45.528;9.234;2022-08-01T11:48:20;12.38;;;3.22;;
40669;SDS011;26355;45.528;9.234;2022-08-01T11:50:47;9.63;;;2.88;;
40669;SDS011;26355;45.528;9.234;2022-08-01T11:53:17;11.98;;;3.10;;
40669;SDS011;26355;45.528;9.234;2022-08-01T11:55:48;8.32;;;2.85;;
40669;SDS011;26355;45.528;9.234;2022-08-01T11:58:16;11.25;;;3.05;;
40669;SDS011;26355;45.528;9.234;2022-08-01T12:01:05;10.20;;;2.90;;
40669;SDS011;26355;45.528;9.234;2022-08-01T12:03:31;10.77;;;2.60;;
40669;SDS011;26355;45.528;9.234;2022-08-01T12:05:58;10.93;;;2.75;;
40669;SDS011;26355;45.528;9.234;2022-08-01T12:08:24;9.98;;;3.35;;
40669;SDS011;26355;45.528;9.234;2022-08-01T12:10:50;9.55;;;2.95;;
40669;SDS011;26355;45.528;9.234;2022-08-01T12:13:16;8.03;;;2.87;;
40669;SDS011;26355;45.528;9.234;2022-08-01T12:15:45;9.25;;;3.08;;
40669;SDS011;26355;45.528;9.234;2022-08-01T12:18:11;11.75;;;3.08;;
40669;SDS011;26355;45.528;9.234;2022-08-01T12:20:38;10.03;;;3.40;;
40669;SDS011;26355;45.528;9.234;2022-08-01T12:23:09;7.38;;;2.67;;
40669;SDS011;26355;45.528;9.234;2022-08-01T12:25:37;7.13;;;2.40;;
40669;SDS011;26355;45.528;9.234;2022-08-01T12:28:07;6.20;;;2.03;;
40669;SDS011;26355;45.528;9.234;2022-08-01T12:30:34;6.93;;;2.30;;
40669;SDS011;26355;45.528;9.234;2022-08-01T12:33:01;10.10;;;2.38;;
40669;SDS011;26355;45.528;9.234;2022-08-01T12:35:31;6.65;;;2.00;;
40669;SDS011;26355;45.528;9.234;2022-08-01T12:40:26;3.95;;;1.80;;
40669;SDS011;26355;45.528;9.234;2022-08-01T12:43:05;7.25;;;2.22;;
40669;SDS011;26355;45.528;9.234;2022-08-01T12:48:07;7.97;;;2.15;;
40669;SDS011;26355;45.528;9.234;2022-08-01T12:50:35;5.57;;;2.10;;
40669;SDS011;26355;45.528;9.234;2022-08-01T12:53:02;5.75;;;2.00;;
40669;SDS011;26355;45.528;9.234;2022-08-01T12:55:28;4.57;;;1.93;;
40669;SDS011;26355;45.528;9.234;2022-08-01T12:58:09;7.67;;;2.20;;
40669;SDS011;26355;45.528;9.234;2022-08-01T13:00:37;7.25;;;2.00;;
40669;SDS011;26355;45.528;9.234;2022-08-01T13:03:18;6.65;;;1.73;;
40669;SDS011;26355;45.528;9.234;2022-08-01T13:05:46;7.55;;;2.00;;
40669;SDS011;26355;45.528;9.234;2022-08-01T13:08:15;2.88;;;1.50;;
40669;SDS011;26355;45.528;9.234;2022-08-01T13:10:44;2.88;;;1.58;;
40669;SDS011;26355;45.528;9.234;2022-08-01T13:13:12;3.65;;;1.70;;
40669;SDS011;26355;45.528;9.234;2022-08-01T13:15:39;6.35;;;1.98;;
40669;SDS011;26355;45.528;9.234;2022-08-01T13:18:27;5.80;;;1.80;;
40669;SDS011;26355;45.528;9.234;2022-08-01T13:21:08;8.38;;;2.30;;
40669;SDS011;26355;45.528;9.234;2022-08-01T13:29:14;6.13;;;2.10;;
40669;SDS011;26355;45.528;9.234;2022-08-01T13:31:43;8.73;;;2.60;;
40669;SDS011;26355;45.528;9.234;2022-08-01T13:34:09;7.88;;;2.03;;
40669;SDS011;26355;45.528;9.234;2022-08-01T13:36:35;7.13;;;2.30;;
40669;SDS011;26355;45.528;9.234;2022-08-01T13:39:02;7.00;;;2.10;;
40669;SDS011;26355;45.528;9.234;2022-08-01T13:41:47;8.43;;;2.05;;
40669;SDS011;26355;45.528;9.234;2022-08-01T13:44:13;5.60;;;1.80;;
40669;SDS011;26355;45.528;9.234;2022-08-01T13:46:39;6.65;;;1.83;;
40669;SDS011;26355;45.528;9.234;2022-08-01T13:49:06;6.20;;;1.83;;
40669;SDS011;26355;45.528;9.234;2022-08-01T13:51:33;3.75;;;1.80;;
40669;SDS011;26355;45.528;9.234;2022-08-01T13:54:00;6.72;;;2.35;;
40669;SDS011;26355;45.528;9.234;2022-08-01T13:56:25;7.30;;;1.70;;
40669;SDS011;26355;45.528;9.234;2022-08-01T13:58:55;6.57;;;1.70;;
40669;SDS011;26355;45.528;9.234;2022-08-01T14:01:21;6.85;;;1.63;;
40669;SDS011;26355;45.528;9.234;2022-08-01T14:03:47;5.05;;;1.88;;
40669;SDS011;26355;45.528;9.234;2022-08-01T14:06:13;4.15;;;1.75;;
40669;SDS011;26355;45.528;9.234;2022-08-01T14:08:42;4.20;;;1.50;;
40669;SDS011;26355;45.528;9.234;2022-08-01T14:11:08;4.85;;;1.45;;
40669;SDS011;26355;45.528;9.234;2022-08-01T14:13:34;2.42;;;1.50;;
40669;SDS011;26355;45.528;9.234;2022-08-01T14:16:03;2.65;;;1.30;;
40669;SDS011;26355;45.528;9.234;2022-08-01T14:20:55;2.63;;;1.27;;
40669;SDS011;26355;45.528;9.234;2022-08-01T14:23:20;4.83;;;1.70;;
40669;SDS011;26355;45.528;9.234;2022-08-01T14:25:46;2.57;;;1.43;;
40669;SDS011;26355;45.528;9.234;2022-08-01T14:28:12;5.67;;;1.67;;
40669;SDS011;26355;45.528;9.234;2022-08-01T14:30:37;5.00;;;1.60;;
40669;SDS011;26355;45.528;9.234;2022-08-01T14:33:03;4.90;;;1.60;;
40669;SDS011;26355;45.528;9.234;2022-08-01T14:35:28;4.30;;;1.50;;
40669;SDS011;26355;45.528;9.234;2022-08-01T14:37:54;3.13;;;1.80;;
40669;SDS011;26355;45.528;9.234;2022-08-01T14:40:19;8.47;;;1.73;;
40669;SDS011;26355;45.528;9.234;2022-08-01T14:42:45;6.23;;;1.70;;
40669;SDS011;26355;45.528;9.234;2022-08-01T14:45:11;3.83;;;1.70;;
40669;SDS011;26355;45.528;9.234;2022-08-01T14:47:38;5.88;;;1.60;;
40669;SDS011;26355;45.528;9.234;2022-08-01T14:50:06;3.88;;;1.48;;
40669;SDS011;26355;45.528;9.234;2022-08-01T14:52:34;4.63;;;1.48;;
40669;SDS011;26355;45.528;9.234;2022-08-01T14:55:01;6.00;;;1.83;;
40669;SDS011;26355;45.528;9.234;2022-08-01T14:57:28;5.47;;;1.63;;
40669;SDS011;26355;45.528;9.234;2022-08-01T14:59:54;3.87;;;1.60;;
40669;SDS011;26355;45.528;9.234;2022-08-01T15:02:19;4.03;;;1.60;;
40669;SDS011;26355;45.528;9.234;2022-08-01T15:04:46;4.83;;;1.50;;
40669;SDS011;26355;45.528;9.234;2022-08-01T15:07:12;4.78;;;1.55;;
40669;SDS011;26355;45.528;9.234;2022-08-01T15:09:38;5.60;;;1.65;;
40669;SDS011;26355;45.528;9.234;2022-08-01T15:12:04;2.97;;;1.30;;
40669;SDS011;26355;45.528;9.234;2022-08-01T15:14:30;4.43;;;1.50;;
40669;SDS011;26355;45.528;9.234;2022-08-01T15:17:15;5.68;;;1.48;;
40669;SDS011;26355;45.528;9.234;2022-08-01T15:19:41;6.35;;;1.70;;
40669;SDS011;26355;45.528;9.234;2022-08-01T15:22:06;7.70;;;1.33;;
40669;SDS011;26355;45.528;9.234;2022-08-01T15:24:32;2.93;;;1.43;;
40669;SDS011;26355;45.528;9.234;2022-08-01T15:26:58;4.10;;;1.30;;
40669;SDS011;26355;45.528;9.234;2022-08-01T15:29:23;6.07;;;1.60;;
40669;SDS011;26355;45.528;9.234;2022-08-01T15:31:49;6.97;;;1.40;;
40669;SDS011;26355;45.528;9.234;2022-08-01T15:34:15;2.57;;;1.30;;
40669;SDS011;26355;45.528;9.234;2022-08-01T15:36:41;3.87;;;1.50;;
40669;SDS011;26355;45.528;9.234;2022-08-01T15:39:08;5.03;;;1.60;;
40669;SDS011;26355;45.528;9.234;2022-08-01T15:41:34;5.18;;;1.40;;
40669;SDS011;26355;45.528;9.234;2022-08-01T15:44:00;7.20;;;1.73;;
40669;SDS011;26355;45.528;9.234;2022-08-01T15:46:25;4.67;;;1.40;;
40669;SDS011;26355;45.528;9.234;2022-08-01T15:48:51;3.97;;;1.40;;
40669;SDS011;26355;45.528;9.234;2022-08-01T15:51:17;6.27;;;1.57;;
40669;SDS011;26355;45.528;9.234;2022-08-01T15:53:42;3.87;;;1.33;;
40669;SDS011;26355;45.528;9.234;2022-08-01T15:56:09;4.68;;;1.45;;
40669;SDS011;26355;45.528;9.234;2022-08-01T15:58:34;5.40;;;1.50;;
40669;SDS011;26355;45.528;9.234;2022-08-01T16:01:00;6.27;;;1.93;;
40669;SDS011;26355;45.528;9.234;2022-08-01T16:03:25;4.43;;;1.30;;
40669;SDS011;26355;45.528;9.234;2022-08-01T16:05:52;5.10;;;1.67;;
40669;SDS011;26355;45.528;9.234;2022-08-01T16:08:18;3.67;;;1.70;;
40669;SDS011;26355;45.528;9.234;2022-08-01T16:10:44;4.83;;;1.50;;
40669;SDS011;26355;45.528;9.234;2022-08-01T16:13:10;2.73;;;1.53;;
40669;SDS011;26355;45.528;9.234;2022-08-01T16:15:36;2.50;;;1.35;;
40669;SDS011;26355;45.528;9.234;2022-08-01T16:18:03;5.22;;;1.50;;
40669;SDS011;26355;45.528;9.234;2022-08-01T16:20:29;4.43;;;1.33;;